createdAt,value
2023-03-15T00:01:20.342Z,85.96
2023-03-15T00:03:47.720Z,86.38
2023-03-15T00:06:15.762Z,86.44
2023-03-15T00:08:47.725Z,86.54
2023-03-15T00:11:16.265Z,86.50
2023-03-15T00:13:43.861Z,86.70
2023-03-15T00:16:11.926Z,86.35
2023-03-15T00:18:38.934Z,86.45
2023-03-15T00:21:05.935Z,86.38
2023-03-15T00:23:32.886Z,86.26
2023-03-15T00:25:59.847Z,86.00
2023-03-15T00:28:26.795Z,86.35
2023-03-15T00:31:19.588Z,85.11
2023-03-15T00:33:47.921Z,86.53
2023-03-15T00:36:15.678Z,86.42
2023-03-15T00:38:45.889Z,86.50
2023-03-15T00:41:18.531Z,85.83
2023-03-15T00:43:46.173Z,86.45
2023-03-15T00:46:14.472Z,86.15
2023-03-15T00:48:42.495Z,86.66
2023-03-15T00:51:17.448Z,85.67
2023-03-15T00:53:46.899Z,86.30
2023-03-15T00:56:23.533Z,85.96
2023-03-15T00:58:54.406Z,86.70
2023-03-15T01:01:30.602Z,85.42
2023-03-15T01:03:57.676Z,86.31
2023-03-15T01:06:28.177Z,86.01
2023-03-15T01:08:56.619Z,86.24
2023-03-15T01:11:28.045Z,86.10
2023-03-15T01:13:58.690Z,86.06
2023-03-15T01:16:27.737Z,86.11
2023-03-15T01:18:55.054Z,86.38
2023-03-15T01:21:24.032Z,86.49
2023-03-15T01:23:51.638Z,86.36
2023-03-15T01:26:22.157Z,86.32
2023-03-15T01:28:49.242Z,86.18
2023-03-15T01:31:25.607Z,85.69
2023-03-15T01:33:53.823Z,86.24
2023-03-15T01:36:21.551Z,86.66
2023-03-15T01:38:49.762Z,86.35
2023-03-15T01:41:21.510Z,84.52
2023-03-15T01:43:48.493Z,86.11
2023-03-15T01:46:26.588Z,85.44
2023-03-15T01:49:28.981Z,84.87
2023-03-15T01:52:08.823Z,85.55
2023-03-15T01:55:16.527Z,85.14
2023-03-15T01:57:59.381Z,85.84
2023-03-15T02:00:29.217Z,85.82
2023-03-15T02:03:16.375Z,85.53
2023-03-15T02:05:54.562Z,85.71
2023-03-15T02:08:59.129Z,85.74
2023-03-15T02:11:31.218Z,85.95
2023-03-15T02:14:00.164Z,86.44
2023-03-15T02:16:29.752Z,86.38
2023-03-15T02:19:11.600Z,85.89
2023-03-15T02:21:44.208Z,85.57
2023-03-15T02:24:45.358Z,84.98
2023-03-15T02:27:12.433Z,85.67
2023-03-15T02:29:39.597Z,86.02
2023-03-15T02:32:07.004Z,86.16
2023-03-15T02:34:33.960Z,86.26
2023-03-15T02:37:02.173Z,86.16
2023-03-15T02:39:29.117Z,86.15
2023-03-15T02:41:58.832Z,86.31
2023-03-15T02:44:35.158Z,85.80
2023-03-15T02:47:30.307Z,85.82
2023-03-15T02:49:58.214Z,86.25
2023-03-15T02:52:26.341Z,86.55
2023-03-15T02:54:54.118Z,86.71
2023-03-15T02:57:21.428Z,86.65
2023-03-15T02:59:50.948Z,86.40
2023-03-15T03:02:19.297Z,86.71
2023-03-15T03:04:46.595Z,86.53
2023-03-15T03:07:13.924Z,87.04
2023-03-15T03:09:48.331Z,86.94
2023-03-15T03:12:16.773Z,86.98
2023-03-15T03:14:43.702Z,87.11
2023-03-15T03:17:14.885Z,85.53
2023-03-15T03:19:42.763Z,86.73
2023-03-15T03:22:13.155Z,86.74
2023-03-15T03:24:45.729Z,86.82
2023-03-15T03:27:17.341Z,87.14
2023-03-15T03:29:46.457Z,87.12
2023-03-15T03:32:13.982Z,87.41
2023-03-15T03:34:40.984Z,87.85
2023-03-15T03:37:08.684Z,87.42
2023-03-15T03:40:01.321Z,87.51
2023-03-15T03:42:28.335Z,87.24
2023-03-15T03:44:55.564Z,87.27
2023-03-15T03:47:25.235Z,87.00
2023-03-15T03:49:52.223Z,87.18
2023-03-15T03:52:19.209Z,87.50
2023-03-15T03:54:47.116Z,87.53
2023-03-15T03:57:14.091Z,87.07
2023-03-15T03:59:41.248Z,87.20
2023-03-15T04:02:09.537Z,87.29
2023-03-15T04:04:41.157Z,86.93
2023-03-15T04:07:12.184Z,87.32
2023-03-15T04:09:41.746Z,86.69
2023-03-15T04:12:09.374Z,86.92
2023-03-15T04:14:38.206Z,87.09
2023-03-15T04:17:08.800Z,87.74
2023-03-15T04:19:36.000Z,88.08
2023-03-15T04:22:10.181Z,87.80
2023-03-15T04:24:42.437Z,88.53
2023-03-15T04:27:17.983Z,87.70
2023-03-15T04:30:17.915Z,87.40
2023-03-15T04:32:58.743Z,88.13
2023-03-15T04:35:46.083Z,87.97
2023-03-15T04:38:35.439Z,88.32
2023-03-15T04:41:19.596Z,88.83
2023-03-15T04:44:05.665Z,87.91
2023-03-15T04:46:56.016Z,88.35
2023-03-15T04:49:40.532Z,88.08
2023-03-15T04:52:17.558Z,88.62
2023-03-15T04:55:07.983Z,88.10
2023-03-15T04:58:04.095Z,88.12
2023-03-15T05:00:44.970Z,87.65
2023-03-15T05:03:36.856Z,87.69
2023-03-15T05:06:30.827Z,87.38
2023-03-15T05:09:19.089Z,87.75
2023-03-15T05:11:56.313Z,87.54
2023-03-15T05:14:53.829Z,87.61
2023-03-15T05:17:30.165Z,87.67
2023-03-15T05:20:16.757Z,88.58
2023-03-15T05:22:57.370Z,88.44
2023-03-15T05:25:41.839Z,89.04
2023-03-15T05:28:25.107Z,88.77
2023-03-15T05:31:09.073Z,88.79
2023-03-15T05:33:55.009Z,88.32
2023-03-15T05:36:52.170Z,89.03
2023-03-15T05:39:38.747Z,89.11
2023-03-15T05:42:26.037Z,90.22
2023-03-15T05:44:57.079Z,89.34
2023-03-15T05:48:02.932Z,89.04
2023-03-15T05:50:47.034Z,88.91
2023-03-15T05:53:13.975Z,88.91
2023-03-15T05:55:59.671Z,88.49
2023-03-15T05:58:52.246Z,89.21
2023-03-15T06:01:37.908Z,89.01
2023-03-15T06:04:13.631Z,88.85
2023-03-15T06:06:40.578Z,89.30
2023-03-15T06:09:10.111Z,89.12
2023-03-15T06:11:37.223Z,89.69
2023-03-15T06:14:04.512Z,89.27
2023-03-15T06:16:37.584Z,89.17
2023-03-15T06:19:04.857Z,89.34
2023-03-15T06:21:32.342Z,89.17
2023-03-15T06:24:00.472Z,89.66
2023-03-15T06:26:27.528Z,89.44
2023-03-15T06:28:59.239Z,89.40
2023-03-15T06:31:26.484Z,89.40
2023-03-15T06:34:01.890Z,89.08
2023-03-15T06:36:28.949Z,89.36
2023-03-15T06:38:55.904Z,89.03
2023-03-15T06:41:22.845Z,89.42
2023-03-15T06:43:55.083Z,89.41
2023-03-15T06:46:22.546Z,89.45
2023-03-15T06:48:52.983Z,89.19
2023-03-15T06:51:21.993Z,89.66
2023-03-15T06:53:49.005Z,89.69
2023-03-15T06:56:16.040Z,89.69
2023-03-15T06:58:43.172Z,89.42
2023-03-15T07:01:14.054Z,89.21
2023-03-15T07:03:42.151Z,89.42
2023-03-15T07:06:09.690Z,89.80
2023-03-15T07:08:36.764Z,89.68
2023-03-15T07:11:04.226Z,89.88
2023-03-15T07:13:31.175Z,89.91
2023-03-15T07:15:58.146Z,90.12
2023-03-15T07:18:25.336Z,90.28
2023-03-15T07:21:00.159Z,89.75
2023-03-15T07:23:28.013Z,89.95
2023-03-15T07:25:58.357Z,90.19
2023-03-15T07:28:28.942Z,90.33
2023-03-15T07:31:02.821Z,90.06
2023-03-15T07:33:33.188Z,90.35
2023-03-15T07:36:00.421Z,90.04
2023-03-15T07:38:31.137Z,90.38
2023-03-15T07:41:01.989Z,90.41
2023-03-15T07:43:29.396Z,90.71
2023-03-15T07:46:08.168Z,90.92
2023-03-15T07:48:35.189Z,90.43
2023-03-15T07:51:02.165Z,90.33
2023-03-15T07:53:29.422Z,90.57
2023-03-15T07:55:56.425Z,90.46
2023-03-15T07:58:23.747Z,90.49
2023-03-15T08:00:50.696Z,90.58
2023-03-15T08:03:17.742Z,90.62
2023-03-15T08:05:44.772Z,90.63
2023-03-15T08:08:11.749Z,90.88
2023-03-15T08:10:38.761Z,90.67
2023-03-15T08:13:05.763Z,90.76
2023-03-15T08:15:32.719Z,90.78
2023-03-15T08:18:00.013Z,90.91
2023-03-15T08:20:29.687Z,90.84
2023-03-15T08:22:57.023Z,90.77
2023-03-15T08:25:25.300Z,90.90
2023-03-15T08:27:52.581Z,91.41
2023-03-15T08:30:21.507Z,91.37
2023-03-15T08:32:51.184Z,91.11
2023-03-15T08:35:21.270Z,91.13
2023-03-15T08:37:48.779Z,91.47
2023-03-15T08:40:23.706Z,91.55
2023-03-15T08:42:54.687Z,91.54
2023-03-15T08:45:24.156Z,91.54
2023-03-15T08:47:58.880Z,91.11
2023-03-15T08:50:28.375Z,91.52
2023-03-15T08:52:55.539Z,91.34
2023-03-15T08:55:22.674Z,91.62
2023-03-15T08:57:49.727Z,91.55
2023-03-15T09:00:20.531Z,91.68
2023-03-15T09:02:49.939Z,91.48
2023-03-15T09:05:21.031Z,91.66
2023-03-15T09:07:48.270Z,90.86
2023-03-15T09:10:17.250Z,91.52
2023-03-15T09:12:47.535Z,91.74
2023-03-15T09:15:15.186Z,91.73
2023-03-15T09:17:42.738Z,91.95
2023-03-15T09:20:21.984Z,91.93
2023-03-15T09:22:58.637Z,91.52
2023-03-15T09:25:26.698Z,91.77
2023-03-15T09:27:54.173Z,91.85
2023-03-15T09:30:21.386Z,91.57
2023-03-15T09:32:49.037Z,91.46
2023-03-15T09:35:20.095Z,91.36
2023-03-15T09:37:49.092Z,91.56
2023-03-15T09:40:31.924Z,90.84
2023-03-15T09:43:35.613Z,91.10
2023-03-15T09:46:30.807Z,91.30
2023-03-15T09:49:15.819Z,91.45
2023-03-15T09:52:05.819Z,91.63
2023-03-15T09:54:44.869Z,91.64
2023-03-15T09:57:22.820Z,91.92
2023-03-15T09:59:54.127Z,91.70
2023-03-15T10:02:31.609Z,91.56
2023-03-15T10:05:10.989Z,91.42
2023-03-15T10:07:38.212Z,91.78
2023-03-15T10:10:17.406Z,91.65
2023-03-15T10:12:54.936Z,91.29
2023-03-15T10:16:02.481Z,90.71
2023-03-15T10:18:57.788Z,91.27
2023-03-15T10:21:46.947Z,91.66
2023-03-15T10:24:40.304Z,91.61
2023-03-15T10:27:25.155Z,91.50
2023-03-15T10:29:57.093Z,91.43
2023-03-15T10:32:31.002Z,91.45
2023-03-15T10:34:58.835Z,91.77
2023-03-15T10:37:26.571Z,91.92
2023-03-15T10:39:58.276Z,91.62
2023-03-15T10:42:33.027Z,92.02
2023-03-15T10:45:22.145Z,91.75
2023-03-15T10:47:59.742Z,92.05
2023-03-15T10:50:33.490Z,92.30
2023-03-15T10:53:08.707Z,92.38
2023-03-15T10:55:45.859Z,92.33
2023-03-15T10:58:31.447Z,92.55
2023-03-15T11:01:09.626Z,92.99
2023-03-15T11:03:38.521Z,92.75
2023-03-15T11:06:22.568Z,92.79
2023-03-15T11:08:49.551Z,93.26
2023-03-15T11:11:16.515Z,93.31
2023-03-15T11:13:59.965Z,92.94
2023-03-15T11:16:26.915Z,93.25
2023-03-15T11:19:11.909Z,93.12
2023-03-15T11:21:40.263Z,93.58
2023-03-15T11:24:08.426Z,93.56
2023-03-15T11:26:39.394Z,93.57
2023-03-15T11:29:23.195Z,93.25
2023-03-15T11:31:51.396Z,93.54
2023-03-15T11:34:37.067Z,93.48
2023-03-15T11:37:32.546Z,93.56
2023-03-15T11:40:22.045Z,93.73
2023-03-15T11:43:05.467Z,94.08
2023-03-15T11:46:33.837Z,93.76
2023-03-15T11:49:38.800Z,93.37
2023-03-15T11:52:06.327Z,94.15
2023-03-15T11:54:33.507Z,93.81
2023-03-15T11:57:06.229Z,93.41
2023-03-15T11:59:37.627Z,93.64
2023-03-15T12:02:10.595Z,93.24
2023-03-15T12:04:46.642Z,93.42
2023-03-15T12:07:19.481Z,93.26
2023-03-15T12:10:16.020Z,93.49
2023-03-15T12:12:56.587Z,93.22
2023-03-15T12:15:23.434Z,93.45
2023-03-15T12:18:00.020Z,93.06
2023-03-15T12:20:37.844Z,93.51
2023-03-15T12:23:22.391Z,92.96
2023-03-15T12:25:57.532Z,93.27
2023-03-15T12:28:37.591Z,92.95
2023-03-15T12:31:08.916Z,93.18
2023-03-15T12:33:58.257Z,93.10
2023-03-15T12:36:39.902Z,93.06
2023-03-15T12:39:09.704Z,93.49
2023-03-15T12:41:46.776Z,93.39
2023-03-15T12:44:33.219Z,93.49
2023-03-15T12:47:13.678Z,93.43
2023-03-15T12:49:44.648Z,93.50
2023-03-15T12:52:11.521Z,93.82
2023-03-15T12:54:51.781Z,94.07
2023-03-15T12:57:29.559Z,94.66
2023-03-15T13:00:00.412Z,95.10
2023-03-15T13:02:43.706Z,95.27
2023-03-15T13:05:29.978Z,95.39
2023-03-15T13:08:21.043Z,95.35
2023-03-15T13:10:50.956Z,95.77
2023-03-15T13:13:36.260Z,95.32
2023-03-15T13:16:29.969Z,95.08
2023-03-15T13:19:27.020Z,94.86
2023-03-15T13:22:12.924Z,94.68
2023-03-15T13:25:04.711Z,94.39
2023-03-15T13:28:16.194Z,94.14
2023-03-15T13:30:48.934Z,94.70
2023-03-15T13:33:21.938Z,94.41
2023-03-15T13:36:12.854Z,94.33
2023-03-15T13:38:43.153Z,95.00
2023-03-15T13:41:17.864Z,95.08
2023-03-15T13:43:45.970Z,95.47
2023-03-15T13:46:13.338Z,95.84
2023-03-15T13:48:43.893Z,95.96
2023-03-15T13:51:36.965Z,96.88
2023-03-15T13:54:29.502Z,98.54
2023-03-15T13:57:14.385Z,99.72
2023-03-15T14:00:00.435Z,100.00
2023-03-15T14:02:45.568Z,100.00
2023-03-15T14:05:26.949Z,100.00
2023-03-15T14:08:03.958Z,100.00
2023-03-15T14:10:38.749Z,100.00
2023-03-15T14:13:34.042Z,100.00
2023-03-15T14:16:07.337Z,100.00
2023-03-15T14:18:40.175Z,100.00
2023-03-15T14:21:31.442Z,100.00
2023-03-15T14:24:06.612Z,100.00
2023-03-15T14:26:40.890Z,100.00
2023-03-15T14:29:19.024Z,100.00
2023-03-15T14:31:51.888Z,100.00
2023-03-15T14:34:29.934Z,100.00
2023-03-15T14:36:59.707Z,100.00
2023-03-15T14:39:40.203Z,100.00
2023-03-15T14:42:10.746Z,100.00
2023-03-15T14:44:38.284Z,100.00
2023-03-15T14:47:16.838Z,100.00
2023-03-15T14:49:44.025Z,100.00
2023-03-15T14:52:14.527Z,100.00
2023-03-15T14:54:48.508Z,100.00
2023-03-15T14:57:15.514Z,100.00
2023-03-15T14:59:42.535Z,100.00
2023-03-15T15:02:18.032Z,100.00
2023-03-15T15:04:48.088Z,100.00
2023-03-15T15:07:17.297Z,100.00
2023-03-15T15:09:49.963Z,100.00
2023-03-15T15:12:18.946Z,100.00
2023-03-15T15:14:46.129Z,100.00
2023-03-15T15:17:13.076Z,100.00
2023-03-15T15:19:40.025Z,100.00
2023-03-15T15:22:09.071Z,100.00
2023-03-15T15:24:36.603Z,100.00
2023-03-15T15:27:03.714Z,100.00
2023-03-15T15:29:30.716Z,100.00
2023-03-15T15:31:57.684Z,100.00
2023-03-15T15:34:24.846Z,100.00
2023-03-15T15:36:52.030Z,100.00
2023-03-15T15:39:27.399Z,100.00
2023-03-15T15:41:54.388Z,100.00
2023-03-15T15:44:25.585Z,100.00
2023-03-15T15:46:53.314Z,100.00
2023-03-15T15:49:21.018Z,100.00
2023-03-15T15:51:49.522Z,100.00
2023-03-15T15:54:25.757Z,100.00
2023-03-15T15:56:57.013Z,100.00
2023-03-15T15:59:27.343Z,99.69
2023-03-15T16:02:01.109Z,100.00
2023-03-15T16:04:29.473Z,99.86
2023-03-15T16:07:01.304Z,100.00
2023-03-15T16:09:30.582Z,100.00
2023-03-15T16:11:58.461Z,100.00
2023-03-15T16:14:25.551Z,100.00
2023-03-15T16:16:52.456Z,100.00
2023-03-15T16:19:19.464Z,100.00
2023-03-15T16:21:49.689Z,99.77
2023-03-15T16:24:26.179Z,99.89
2023-03-15T16:27:05.240Z,99.98
2023-03-15T16:29:47.244Z,100.00
2023-03-15T16:32:32.954Z,99.85
2023-03-15T16:35:09.645Z,99.57
2023-03-15T16:37:36.623Z,99.21
2023-03-15T16:40:09.912Z,99.06
2023-03-15T16:42:36.849Z,99.07
2023-03-15T16:45:13.881Z,99.07
2023-03-15T16:47:40.868Z,98.81
2023-03-15T16:50:08.204Z,98.64
2023-03-15T16:52:35.154Z,98.76
2023-03-15T16:55:03.737Z,98.71
2023-03-15T16:57:33.565Z,98.38
2023-03-15T17:00:02.158Z,98.32
2023-03-15T17:02:31.165Z,97.95
2023-03-15T17:04:58.573Z,97.66
2023-03-15T17:07:32.742Z,97.48
2023-03-15T17:10:11.001Z,97.34
2023-03-15T17:12:38.910Z,97.11
2023-03-15T17:15:07.092Z,96.88
2023-03-15T17:17:36.046Z,96.52
2023-03-15T17:20:10.039Z,96.48
2023-03-15T17:22:37.944Z,96.32
2023-03-15T17:25:05.494Z,95.91
2023-03-15T17:27:37.965Z,95.60
2023-03-15T17:30:31.116Z,95.09
2023-03-15T17:32:58.594Z,94.90
2023-03-15T17:35:34.849Z,94.65
2023-03-15T17:38:04.347Z,94.85
2023-03-15T17:40:35.558Z,94.42
2023-03-15T17:43:03.917Z,94.29
2023-03-15T17:45:33.624Z,94.12
2023-03-15T17:48:02.340Z,94.44
2023-03-15T17:50:33.093Z,94.22
2023-03-15T17:53:20.989Z,93.50
2023-03-15T17:55:49.066Z,93.64
2023-03-15T17:58:20.971Z,93.24
2023-03-15T18:00:50.364Z,93.25
2023-03-15T18:03:18.617Z,93.17
2023-03-15T18:05:45.900Z,93.43
2023-03-15T18:08:19.474Z,92.71
2023-03-15T18:10:48.870Z,93.36
2023-03-15T18:13:21.389Z,92.75
2023-03-15T18:15:49.692Z,92.56
2023-03-15T18:18:16.883Z,92.77
2023-03-15T18:20:45.561Z,92.40
2023-03-15T18:23:14.818Z,92.08
2023-03-15T18:25:43.158Z,92.05
2023-03-15T18:28:11.152Z,92.20
2023-03-15T18:30:38.784Z,91.85
2023-03-15T18:33:05.951Z,91.96
2023-03-15T18:35:35.954Z,91.57
2023-03-15T18:38:04.787Z,91.62
2023-03-15T18:40:33.742Z,91.56
2023-03-15T18:43:01.392Z,91.84
2023-03-15T18:45:33.214Z,91.40
2023-03-15T18:48:01.103Z,91.48
2023-03-15T18:50:29.163Z,91.65
2023-03-15T18:52:56.676Z,91.38
2023-03-15T18:55:24.316Z,91.25
2023-03-15T18:57:53.428Z,91.44
2023-03-15T19:00:29.327Z,90.83
2023-03-15T19:03:01.235Z,90.94
2023-03-15T19:05:31.802Z,91.15
2023-03-15T19:07:58.950Z,91.02
2023-03-15T19:10:27.329Z,91.07
2023-03-15T19:12:54.678Z,90.68
2023-03-15T19:15:24.523Z,91.05
2023-03-15T19:17:54.516Z,90.97
2023-03-15T19:20:23.370Z,91.29
2023-03-15T19:22:52.127Z,91.13
2023-03-15T19:25:20.282Z,91.05
2023-03-15T19:27:47.670Z,91.26
2023-03-15T19:30:20.635Z,90.99
2023-03-15T19:32:49.577Z,90.62
2023-03-15T19:35:19.199Z,90.93
2023-03-15T19:37:50.765Z,90.80
2023-03-15T19:40:20.070Z,90.96
2023-03-15T19:42:48.553Z,90.89
2023-03-15T19:45:16.831Z,90.80
2023-03-15T19:47:44.867Z,90.98
2023-03-15T19:50:14.373Z,90.79
2023-03-15T19:52:46.028Z,90.46
2023-03-15T19:55:20.133Z,90.25
2023-03-15T19:57:47.812Z,90.90
2023-03-15T20:00:18.077Z,91.05
2023-03-15T20:02:45.729Z,90.74
2023-03-15T20:05:16.701Z,90.53
2023-03-15T20:07:44.415Z,90.88
2023-03-15T20:10:13.138Z,90.76
2023-03-15T20:12:42.389Z,90.81
2023-03-15T20:15:15.249Z,90.93
2023-03-15T20:17:42.714Z,91.13
2023-03-15T20:20:13.114Z,90.84
2023-03-15T20:22:44.452Z,90.76
2023-03-15T20:25:15.753Z,90.27
2023-03-15T20:27:43.736Z,90.48
2023-03-15T20:30:13.264Z,90.55
2023-03-15T20:32:41.435Z,90.45
2023-03-15T20:35:09.644Z,90.19
2023-03-15T20:37:40.304Z,90.17
2023-03-15T20:40:12.667Z,89.75
2023-03-15T20:42:45.138Z,88.71
2023-03-15T20:45:14.881Z,89.81
2023-03-15T20:47:42.643Z,90.11
2023-03-15T20:50:13.796Z,89.75
2023-03-15T20:52:42.726Z,88.64
2023-03-15T20:55:13.734Z,89.85
2023-03-15T20:57:42.726Z,89.55
2023-03-15T21:00:21.969Z,89.51
2023-03-15T21:02:49.794Z,89.62
2023-03-15T21:05:17.772Z,90.19
2023-03-15T21:07:51.388Z,89.94
2023-03-15T21:10:23.773Z,90.31
2023-03-15T21:12:51.739Z,89.73
2023-03-15T21:15:19.304Z,89.70
2023-03-15T21:17:49.292Z,89.94
2023-03-15T21:20:17.893Z,89.87
2023-03-15T21:22:45.011Z,89.80
2023-03-15T21:25:13.160Z,90.11
2023-03-15T21:27:40.449Z,89.78
2023-03-15T21:30:08.598Z,90.02
2023-03-15T21:32:35.722Z,90.02
2023-03-15T21:35:04.919Z,89.75
2023-03-15T21:37:32.068Z,89.59
2023-03-15T21:39:59.044Z,89.78
2023-03-15T21:42:26.021Z,89.69
2023-03-15T21:44:55.892Z,89.64
2023-03-15T21:47:22.827Z,89.54
2023-03-15T21:49:50.517Z,89.83
2023-03-15T21:52:17.489Z,89.27
2023-03-15T21:54:44.899Z,89.63
2023-03-15T21:57:12.734Z,89.62
2023-03-15T21:59:40.245Z,89.70
2023-03-15T22:02:08.732Z,89.71
2023-03-15T22:04:35.755Z,89.67
2023-03-15T22:07:02.944Z,89.73
2023-03-15T22:09:29.896Z,89.55
2023-03-15T22:11:56.900Z,89.65
2023-03-15T22:14:23.851Z,90.00
2023-03-15T22:16:51.525Z,90.03
2023-03-15T22:19:18.513Z,90.12
2023-03-15T22:21:45.457Z,90.13
2023-03-15T22:24:12.522Z,90.12
2023-03-15T22:26:39.459Z,89.80
2023-03-15T22:29:06.389Z,89.68
2023-03-15T22:31:33.402Z,89.71
2023-03-15T22:34:00.939Z,90.09
2023-03-15T22:36:28.918Z,89.82
2023-03-15T22:38:55.914Z,90.18
2023-03-15T22:41:23.987Z,89.69
2023-03-15T22:43:52.565Z,90.05
2023-03-15T22:46:19.531Z,89.70
2023-03-15T22:48:46.503Z,89.80
2023-03-15T22:51:17.073Z,89.23
2023-03-15T22:53:44.368Z,89.56
2023-03-15T22:56:11.465Z,89.75
2023-03-15T22:58:38.500Z,89.81
2023-03-15T23:01:05.659Z,90.48
2023-03-15T23:03:32.770Z,90.25
2023-03-15T23:06:00.280Z,90.07
2023-03-15T23:08:27.412Z,90.25
2023-03-15T23:10:58.205Z,89.97
2023-03-15T23:13:25.363Z,90.41
2023-03-15T23:15:52.517Z,90.16
2023-03-15T23:18:19.878Z,90.14
2023-03-15T23:20:46.911Z,90.15
2023-03-15T23:23:14.074Z,90.04
2023-03-15T23:25:41.394Z,89.86
2023-03-15T23:28:08.455Z,89.80
2023-03-15T23:30:36.441Z,89.95
2023-03-15T23:33:03.725Z,90.18
2023-03-15T23:35:31.623Z,89.78
2023-03-15T23:37:58.744Z,90.30
2023-03-15T23:40:26.270Z,90.11
2023-03-15T23:42:58.855Z,89.88
2023-03-15T23:45:29.706Z,89.82
2023-03-15T23:47:56.880Z,89.89
2023-03-15T23:50:27.148Z,89.77
2023-03-15T23:52:56.021Z,90.00
2023-03-15T23:55:23.916Z,89.51
2023-03-15T23:57:51.054Z,89.23
